Terminal Aerodrome Forecast
Issued by NWS

Home | Current Version | Previous Version | Text Only | Print | Product List | Glossary On
Versions: 1 2 3 4 5 6 7 8 9 10 11 12 13 14
928
FTUS44 KEPZ 281133
TAFTCS
TAF
KTCS 281133Z 2812/2912 30011KT P6SM VCSH SCT070 BKN100
     FM281500 22020G28KT P6SM VCTS BKN060CB BKN090
     FM290000 28012G22KT P6SM SCT060 SCT090
     FM290300 27012KT P6SM BKN100=

USA.gov is the U.S. government's official web portal to all federal, state and local government web resources and services.